Time;durP1;ratioP1;P1;durP2;ratioP2;P2;SDS_P1;SDS_P2;PMS_P1;PMS_P2;Temp;Humidity;BMP_temperature;BMP_pressure;BME280_temperature;BME280_humidity;BME280_pressure;Samples;Min_cycle;Max_cycle;Signal;HPM_P1;HPM_P2
2023/02/20 00:01:32;;;;;;;12.10;7.40;;;;;;;5.59;90.64;101564.19;108657;1259;59555;-77
2023/02/20 00:04:00;;;;;;;10.50;7.20;;;;;;;5.60;91.15;101550.95;108699;1257;74596;-77
2023/02/20 00:06:26;;;;;;;10.90;7.80;;;;;;;5.62;91.39;101559.59;108754;1259;71057;-77
2023/02/20 00:08:53;;;;;;;10.80;7.50;;;;;;;5.64;91.64;101555.52;108669;1258;72593;-77
2023/02/20 00:11:20;;;;;;;10.90;6.40;;;;;;;5.67;91.58;101562.86;108817;1258;59608;-76
2023/02/20 00:13:48;;;;;;;8.80;6.50;;;;;;;5.70;91.74;101554.35;108846;1258;59510;-77
2023/02/20 00:16:15;;;;;;;10.10;6.70;;;;;;;5.72;91.89;101550.11;108707;1259;73457;-77
2023/02/20 00:18:43;;;;;;;9.30;6.30;;;;;;;5.76;91.72;101544.60;108745;1258;70850;-77
2023/02/20 00:21:10;;;;;;;9.10;6.10;;;;;;;5.80;91.38;101544.07;108778;1259;71665;-77
2023/02/20 00:23:37;;;;;;;8.50;6.10;;;;;;;5.85;91.10;101545.26;108753;1257;59806;-77
2023/02/20 00:26:07;;;;;;;9.10;6.10;;;;;;;5.89;90.72;101540.01;108846;1258;59511;-77
2023/02/20 00:28:34;;;;;;;7.90;6.00;;;;;;;5.94;90.55;101532.47;108777;1257;74733;-77
2023/02/20 00:31:01;;;;;;;7.60;5.60;;;;;;;5.97;89.98;101528.52;108801;1259;71304;-77
2023/02/20 00:33:30;;;;;;;7.50;5.50;;;;;;;6.02;89.60;101528.31;108829;1258;73726;-77
2023/02/20 00:35:57;;;;;;;7.30;5.20;;;;;;;6.04;89.52;101536.89;108708;1259;60882;-77
2023/02/20 00:38:24;;;;;;;7.80;5.60;;;;;;;6.10;89.49;101526.64;108850;1258;58990;-77
2023/02/20 00:40:51;;;;;;;7.50;5.30;;;;;;;6.11;89.14;101527.55;108836;1257;74729;-77
2023/02/20 00:43:18;;;;;;;6.80;5.20;;;;;;;6.12;89.10;101523.59;108860;1259;70435;-77
2023/02/20 00:45:44;;;;;;;6.20;4.50;;;;;;;6.13;88.98;101514.89;108819;1259;72792;-77
2023/02/20 00:48:12;;;;;;;6.40;5.20;;;;;;;6.16;88.67;101521.22;108740;1258;59709;-77
2023/02/20 00:50:39;;;;;;;6.80;4.80;;;;;;;6.17;88.60;101521.68;108776;1257;60037;-77
2023/02/20 00:53:06;;;;;;;6.40;4.80;;;;;;;6.18;88.84;101510.50;108844;1257;73226;-77
2023/02/20 00:55:33;;;;;;;6.20;4.80;;;;;;;6.20;88.49;101501.54;108844;1257;69668;-77
2023/02/20 00:58:00;;;;;;;8.50;5.40;;;;;;;6.20;88.69;101502.13;108819;1259;73299;-77
2023/02/20 01:00:28;;;;;;;5.70;4.30;;;;;;;6.18;88.25;101500.81;108798;1257;60993;-78
2023/02/20 01:02:55;;;;;;;6.00;4.70;;;;;;;6.17;88.18;101510.05;108815;1258;60501;-77
2023/02/20 01:05:23;;;;;;;7.20;4.70;;;;;;;6.17;88.33;101509.67;108825;1257;73184;-77
2023/02/20 01:07:50;;;;;;;6.40;4.90;;;;;;;6.19;88.30;101495.36;108835;1258;70107;-77
2023/02/20 01:10:17;;;;;;;7.00;4.90;;;;;;;6.19;88.11;101494.30;108855;1257;73485;-77
2023/02/20 01:12:44;;;;;;;7.10;5.20;;;;;;;6.19;88.06;101497.21;108831;1258;59286;-77
2023/02/20 01:15:13;;;;;;;7.80;5.20;;;;;;;6.19;88.17;101495.86;108788;1258;60089;-77
2023/02/20 01:17:40;;;;;;;6.60;5.00;;;;;;;6.17;87.94;101493.19;108840;1257;73469;-77
2023/02/20 01:20:07;;;;;;;6.80;4.60;;;;;;;6.20;87.86;101493.48;108699;1257;70780;-77
2023/02/20 01:22:35;;;;;;;6.80;5.20;;;;;;;6.22;87.90;101485.80;108805;1258;71497;-77
2023/02/20 01:25:02;;;;;;;7.10;5.60;;;;;;;6.23;87.63;101486.05;108817;1258;60933;-77
2023/02/20 01:27:30;;;;;;;6.60;5.10;;;;;;;6.25;87.52;101479.77;108897;1257;59381;-77
2023/02/20 01:29:57;;;;;;;6.20;5.00;;;;;;;6.25;87.62;101472.89;108850;1258;73413;-77
2023/02/20 01:32:24;;;;;;;6.50;5.00;;;;;;;6.25;87.58;101458.85;108830;1258;71585;-78
2023/02/20 01:34:51;;;;;;;7.70;5.30;;;;;;;6.24;87.30;101452.05;108783;1257;72378;-77
2023/02/20 01:37:18;;;;;;;6.80;5.10;;;;;;;6.25;87.09;101449.13;108754;1258;60882;-77
2023/02/20 01:39:47;;;;;;;6.50;4.60;;;;;;;6.22;86.80;101441.16;108873;1257;58991;-77
2023/02/20 01:42:23;;;;;;;6.40;4.90;;;;;;;6.20;86.23;101436.24;108849;1258;73478;-77
2023/02/20 01:44:50;;;;;;;6.00;4.50;;;;;;;6.17;86.24;101436.48;108787;1259;72882;-77
2023/02/20 01:47:22;;;;;;;5.80;4.60;;;;;;;6.18;86.41;101437.63;108829;1257;72467;-77
2023/02/20 01:49:55;;;;;;;5.20;4.00;;;;;;;6.18;86.61;101438.33;108841;1258;60016;-78
2023/02/20 01:52:33;;;;;;;5.60;3.80;;;;;;;6.17;86.34;101433.73;108908;1257;59067;-77
2023/02/20 01:55:25;;;;;;;6.00;4.10;;;;;;;6.15;86.40;101423.14;108829;1257;73564;-77
2023/02/20 01:58:24;;;;;;;5.60;4.00;;;;;;;6.13;86.33;101410.27;108792;1257;69673;-77
2023/02/20 02:00:52;;;;;;;5.20;4.10;;;;;;;6.10;86.36;101414.38;108839;1258;70916;-77
2023/02/20 02:03:23;;;;;;;5.60;4.30;;;;;;;6.08;86.25;101403.62;108798;1259;60212;-77
2023/02/20 02:05:56;;;;;;;5.60;3.90;;;;;;;6.08;86.50;101399.09;108769;1259;59185;-77
2023/02/20 02:08:25;;;;;;;4.70;3.90;;;;;;;6.04;86.54;101401.20;108856;1257;73313;-77
2023/02/20 02:10:58;;;;;;;5.30;4.20;;;;;;;6.01;86.37;101396.31;108803;1257;69624;-77
2023/02/20 02:13:25;;;;;;;6.00;4.50;;;;;;;5.98;86.61;101381.35;108822;1257;73053;-77
2023/02/20 02:16:00;;;;;;;6.20;3.90;;;;;;;5.92;86.83;101375.25;108768;1261;59816;-77
2023/02/20 02:18:41;;;;;;;6.50;4.60;;;;;;;5.91;86.78;101376.46;108837;1258;60370;-77
2023/02/20 02:21:36;;;;;;;5.20;4.10;;;;;;;5.87;87.06;101370.42;108810;1258;73175;-77
2023/02/20 02:24:40;;;;;;;5.70;4.30;;;;;;;5.85;87.05;101366.05;108788;1259;71229;-77
2023/02/20 02:27:26;;;;;;;6.30;4.70;;;;;;;5.82;87.27;101366.48;108826;1257;72390;-77
2023/02/20 02:30:37;;;;;;;5.40;4.20;;;;;;;5.83;87.45;101358.48;108835;1258;59695;-77
2023/02/20 02:33:36;;;;;;;6.30;4.90;;;;;;;5.82;87.56;101346.48;108416;1263;59036;-77
2023/02/20 02:36:20;;;;;;;6.70;5.30;;;;;;;5.78;87.70;101340.80;108855;1257;73124;-77
2023/02/20 02:39:12;;;;;;;7.60;4.90;;;;;;;5.77;87.74;101331.33;108818;1257;69876;-77
2023/02/20 02:41:57;;;;;;;6.40;4.70;;;;;;;5.76;87.77;101325.08;108798;1258;72930;-77
2023/02/20 02:44:35;;;;;;;6.10;5.20;;;;;;;5.76;87.45;101319.20;108824;1257;59980;-77
2023/02/20 02:47:12;;;;;;;6.60;4.90;;;;;;;5.76;87.28;101321.19;108822;1258;59326;-77
2023/02/20 02:49:45;;;;;;;7.40;5.30;;;;;;;5.76;87.18;101327.35;108792;1257;74442;-77
2023/02/20 02:52:37;;;;;;;7.00;5.30;;;;;;;5.76;87.26;101315.88;108901;1257;69698;-77
2023/02/20 02:55:01;;;;;;;6.50;5.20;;;;;;;5.76;87.18;101316.41;108854;1258;71474;-77
2023/02/20 02:57:28;;;;;;;6.90;5.20;;;;;;;5.78;87.21;101311.40;108789;1257;59640;-77
2023/02/20 03:00:04;;;;;;;7.50;5.50;;;;;;;5.79;87.35;101311.98;108783;1257;59148;-77
2023/02/20 03:02:36;;;;;;;7.20;5.70;;;;;;;5.83;87.22;101308.33;108827;1257;74612;-78
2023/02/20 03:05:07;;;;;;;7.30;5.70;;;;;;;5.88;87.08;101303.15;108901;1257;70849;-77
2023/02/20 03:07:37;;;;;;;7.70;5.70;;;;;;;5.91;87.06;101297.95;108841;1257;72819;-77
2023/02/20 03:10:10;;;;;;;8.20;5.80;;;;;;;5.96;87.12;101300.59;108836;1257;59649;-77
2023/02/20 03:12:41;;;;;;;8.60;6.30;;;;;;;5.98;87.05;101302.11;108843;1257;58974;-77
2023/02/20 03:15:32;;;;;;;7.80;5.80;;;;;;;6.02;87.15;101291.09;108855;1257;73397;-77
2023/02/20 03:18:16;;;;;;;7.30;5.80;;;;;;;6.06;86.78;101292.50;108826;1257;70463;-77
2023/02/20 03:21:08;;;;;;;8.60;6.60;;;;;;;6.07;86.80;101297.88;108849;1257;71107;-77
2023/02/20 03:23:40;;;;;;;8.90;6.30;;;;;;;6.10;86.86;101288.41;108805;1257;60926;-77
2023/02/20 03:26:17;;;;;;;8.30;6.30;;;;;;;6.12;86.73;101283.92;108849;1257;58875;-77
2023/02/20 03:29:09;;;;;;;8.70;6.30;;;;;;;6.12;86.64;101284.93;108866;1258;75679;-78
2023/02/20 03:43:24;;;;;;;8.40;6.70;;;;;;;6.30;86.37;101253.20;108728;1258;72993;-77
2023/02/20 03:45:57;;;;;;;8.50;6.60;;;;;;;6.32;85.86;101253.39;108854;1258;70603;-78
2023/02/20 03:48:37;;;;;;;10.40;7.50;;;;;;;6.36;85.92;101247.42;108815;1258;71613;-77
2023/02/20 03:51:04;;;;;;;9.60;7.40;;;;;;;6.38;85.72;101252.30;108757;1258;59809;-77
2023/02/20 03:53:32;;;;;;;9.80;7.60;;;;;;;6.43;85.62;101250.83;108854;1258;60132;-77
2023/02/20 03:56:03;;;;;;;9.30;7.20;;;;;;;6.45;85.35;101245.07;108864;1257;73672;-78
2023/02/20 03:58:36;;;;;;;12.40;8.30;;;;;;;6.45;85.23;101244.70;108880;1257;70871;-77
2023/02/20 04:01:07;;;;;;;10.90;8.00;;;;;;;6.46;85.08;101235.86;108870;1258;72398;-77
2023/02/20 04:03:39;;;;;;;10.70;8.70;;;;;;;6.46;85.36;101236.86;108734;1259;61386;-77
2023/02/20 04:06:08;;;;;;;10.80;8.50;;;;;;;6.48;85.30;101231.81;108814;1258;59259;-77
2023/02/20 04:08:41;;;;;;;11.00;9.00;;;;;;;6.51;85.44;101232.06;108790;1259;73527;-77
2023/02/20 04:11:16;;;;;;;11.60;9.60;;;;;;;6.51;85.54;101235.23;108775;1258;69761;-77
2023/02/20 04:13:43;;;;;;;12.20;9.50;;;;;;;6.50;85.31;101225.46;108806;1259;72454;-77
2023/02/20 04:16:11;;;;;;;15.00;10.50;;;;;;;6.53;85.09;101225.05;108737;1262;60737;-77
2023/02/20 04:18:39;;;;;;;12.30;10.10;;;;;;;6.55;84.78;101221.14;108781;1259;59561;-77
2023/02/20 04:21:20;;;;;;;12.20;10.40;;;;;;;6.59;84.93;101205.58;108843;1259;73673;-77
2023/02/20 04:23:56;;;;;;;12.90;10.50;;;;;;;6.62;84.62;101208.42;108766;1262;70201;-77
2023/02/20 04:26:23;;;;;;;14.30;11.40;;;;;;;6.67;84.63;101218.53;108804;1258;71138;-77
2023/02/20 04:28:52;;;;;;;13.50;11.20;;;;;;;6.70;84.57;101220.89;108754;1258;59991;-77
2023/02/20 04:31:20;;;;;;;14.10;10.80;;;;;;;6.71;84.49;101210.23;108713;1259;59169;-77
2023/02/20 04:33:48;;;;;;;14.10;11.40;;;;;;;6.74;84.56;101196.59;108763;1259;73576;-77
2023/02/20 04:36:15;;;;;;;14.50;11.90;;;;;;;6.76;84.36;101175.19;108778;1259;69907;-77
2023/02/20 04:38:42;;;;;;;14.80;11.60;;;;;;;6.77;84.07;101163.70;108850;1257;72368;-77
2023/02/20 04:41:09;;;;;;;14.70;11.20;;;;;;;6.80;83.96;101148.27;108746;1257;61345;-78
2023/02/20 04:43:37;;;;;;;14.30;11.20;;;;;;;6.82;83.85;101139.64;108758;1258;59506;-77
2023/02/20 04:46:05;;;;;;;14.40;11.20;;;;;;;6.85;83.53;101146.91;108778;1257;73392;-77
2023/02/20 04:48:33;;;;;;;15.50;12.00;;;;;;;6.87;83.53;101147.81;108792;1259;70238;-77
2023/02/20 04:51:00;;;;;;;17.30;11.30;;;;;;;6.85;83.50;101148.15;108671;1260;71606;-77
2023/02/20 04:53:29;;;;;;;14.80;11.20;;;;;;;6.85;83.32;101154.61;108808;1257;59652;-77
2023/02/20 04:55:56;;;;;;;14.70;12.00;;;;;;;6.88;83.38;101158.39;108787;1259;58999;-77
2023/02/20 04:58:24;;;;;;;16.40;12.40;;;;;;;6.89;83.55;101167.47;108847;1259;74611;-77
2023/02/20 05:00:51;;;;;;;14.80;12.50;;;;;;;6.87;83.77;101163.27;108729;1260;69652;-77
2023/02/20 05:03:18;;;;;;;15.50;12.80;;;;;;;6.83;84.18;101155.19;108776;1257;72797;-77
2023/02/20 05:05:46;;;;;;;14.40;12.70;;;;;;;6.81;83.93;101163.13;108803;1258;59616;-77
2023/02/20 05:08:13;;;;;;;16.20;12.20;;;;;;;6.77;84.40;101163.00;108854;1257;59503;-75
2023/02/20 05:10:40;;;;;;;17.30;13.70;;;;;;;6.72;85.14;101159.73;108903;1260;73894;-76
2023/02/20 05:13:07;;;;;;;16.40;13.50;;;;;;;6.68;85.29;101157.41;108878;1258;71702;-76
2023/02/20 05:15:34;;;;;;;16.20;13.20;;;;;;;6.66;85.48;101162.55;108780;1259;71440;-76
2023/02/20 05:18:03;;;;;;;16.80;13.40;;;;;;;6.62;85.72;101163.46;108757;1259;61007;-76
2023/02/20 05:23:16;;;;;;;19.90;13.70;;;;;;;6.61;86.24;101168.13;108785;1259;73678;-76
2023/02/20 05:25:44;;;;;;;16.20;13.30;;;;;;;6.60;86.44;101158.18;108761;1258;70034;-76
2023/02/20 05:28:11;;;;;;;17.40;13.60;;;;;;;6.61;86.28;101150.50;108820;1258;70135;-76
2023/02/20 05:30:38;;;;;;;16.30;13.10;;;;;;;6.61;86.44;101153.84;108866;1257;59689;-76
2023/02/20 05:33:05;;;;;;;18.50;12.70;;;;;;;6.62;86.53;101147.84;108740;1262;59098;-76
2023/02/20 05:35:34;;;;;;;17.60;12.40;;;;;;;6.63;86.54;101149.51;108893;1257;74899;-76
2023/02/20 05:38:01;;;;;;;15.40;12.10;;;;;;;6.64;86.55;101142.89;108746;1257;71382;-76
2023/02/20 05:40:29;;;;;;;14.60;11.40;;;;;;;6.65;86.71;101131.36;108813;1257;71488;-76
2023/02/20 05:42:56;;;;;;;16.70;13.10;;;;;;;6.69;86.38;101127.64;108781;1258;60909;-76
2023/02/20 05:45:23;;;;;;;15.30;11.80;;;;;;;6.68;86.39;101119.10;108844;1258;60162;-76
2023/02/20 05:47:51;;;;;;;14.20;11.30;;;;;;;6.67;86.48;101112.23;108847;1259;73640;-76
2023/02/20 05:50:18;;;;;;;15.20;11.00;;;;;;;6.65;86.40;101113.93;108783;1259;69151;-77
2023/02/20 05:52:45;;;;;;;14.10;10.90;;;;;;;6.65;86.81;101107.27;108732;1259;72375;-77
2023/02/20 05:55:12;;;;;;;14.20;10.60;;;;;;;6.67;86.77;101100.23;108825;1260;61803;-76
2023/02/20 05:57:39;;;;;;;14.10;9.60;;;;;;;6.71;86.64;101104.61;108791;1257;59378;-77
2023/02/20 06:00:07;;;;;;;12.20;8.10;;;;;;;6.78;86.57;101098.06;108820;1257;73662;-77
2023/02/20 06:02:34;;;;;;;13.60;10.40;;;;;;;6.86;85.86;101086.91;108851;1257;70966;-77
2023/02/20 06:05:04;;;;;;;13.50;9.80;;;;;;;6.92;85.54;101085.13;108775;1258;70479;-77
2023/02/20 06:07:31;;;;;;;13.20;8.50;;;;;;;6.93;85.57;101085.02;108773;1259;60024;-77
2023/02/20 06:09:58;;;;;;;14.50;9.00;;;;;;;6.94;85.77;101078.29;108839;1257;59002;-77
2023/02/20 06:12:26;;;;;;;12.80;8.90;;;;;;;6.94;85.52;101071.91;108849;1258;73539;-77
2023/02/20 06:14:53;;;;;;;11.70;7.60;;;;;;;6.98;85.39;101068.23;108678;1258;69809;-77
2023/02/20 06:17:20;;;;;;;12.40;7.50;;;;;;;7.02;85.28;101067.54;108885;1258;71506;-77
2023/02/20 06:19:48;;;;;;;10.30;7.20;;;;;;;7.07;84.66;101060.48;108889;1258;61051;-77
2023/02/20 06:22:16;;;;;;;13.40;7.30;;;;;;;7.10;84.78;101062.15;108838;1259;59394;-77
2023/02/20 06:24:47;;;;;;;12.70;6.90;;;;;;;7.11;84.56;101068.05;108799;1259;74527;-77
2023/02/20 06:27:16;;;;;;;10.60;5.80;;;;;;;7.15;84.36;101068.92;108755;1259;70898;-77
2023/02/20 06:29:47;;;;;;;12.80;5.70;;;;;;;7.19;83.97;101062.20;108775;1257;71139;-77
2023/02/20 06:32:17;;;;;;;10.70;6.10;;;;;;;7.24;83.95;101062.28;108785;1259;62347;-77
2023/02/20 06:34:58;;;;;;;9.60;5.50;;;;;;;7.26;83.65;101066.06;108802;1262;60712;-77
2023/02/20 06:37:28;;;;;;;8.80;5.20;;;;;;;7.30;83.26;101064.21;108787;1260;75391;-78
2023/02/20 06:39:57;;;;;;;9.20;5.60;;;;;;;7.33;83.06;101061.27;108766;1259;70449;-78
2023/02/20 06:42:30;;;;;;;9.70;5.40;;;;;;;7.39;82.81;101061.48;108788;1259;73903;-77
2023/02/20 06:45:06;;;;;;;10.40;4.90;;;;;;;7.43;82.58;101064.41;108778;1259;60053;-76
2023/02/20 06:47:34;;;;;;;8.90;4.80;;;;;;;7.48;82.12;101070.77;108747;1260;59453;-76
2023/02/20 06:50:01;;;;;;;10.00;5.00;;;;;;;7.54;81.75;101069.27;108679;1258;74721;-77
2023/02/20 06:52:30;;;;;;;8.40;4.80;;;;;;;7.58;81.92;101067.34;108713;1258;69712;-77
2023/02/20 06:55:00;;;;;;;10.40;4.80;;;;;;;7.61;81.39;101073.98;108814;1259;72073;-76
2023/02/20 06:57:52;;;;;;;9.20;4.70;;;;;;;7.63;81.41;101079.41;108729;1260;62050;-77
2023/02/20 07:00:24;;;;;;;8.00;4.50;;;;;;;7.63;81.21;101077.92;108798;1260;58842;-77
2023/02/20 07:02:51;;;;;;;8.00;4.50;;;;;;;7.61;81.08;101077.61;108695;1259;75952;-77
2023/02/20 07:05:18;;;;;;;8.20;4.80;;;;;;;7.62;81.23;101083.49;108850;1257;71290;-77
2023/02/20 07:07:45;;;;;;;10.60;4.90;;;;;;;7.62;81.30;101078.55;108775;1258;72492;-77
2023/02/20 07:10:12;;;;;;;8.40;5.00;;;;;;;7.61;81.51;101085.92;108734;1259;60272;-76
2023/02/20 07:12:39;;;;;;;9.90;4.90;;;;;;;7.60;81.50;101081.45;108719;1257;59128;-76
2023/02/20 07:15:07;;;;;;;8.00;5.30;;;;;;;7.59;81.70;101086.11;108743;1260;73161;-76
2023/02/20 07:17:34;;;;;;;8.40;5.20;;;;;;;7.57;81.85;101085.60;108795;1259;71239;-76
2023/02/20 07:20:01;;;;;;;11.20;5.10;;;;;;;7.57;81.66;101081.39;108796;1257;71543;-76
2023/02/20 07:22:28;;;;;;;9.10;4.90;;;;;;;7.55;82.02;101076.94;108714;1258;60042;-76
2023/02/20 07:24:55;;;;;;;9.40;5.10;;;;;;;7.56;81.78;101068.93;108759;1259;58864;-76
2023/02/20 07:27:22;;;;;;;11.40;5.90;;;;;;;7.56;81.27;101071.05;108876;1257;74672;-77
2023/02/20 07:29:50;;;;;;;8.50;5.10;;;;;;;7.60;81.36;101068.58;108889;1258;69143;-76
2023/02/20 07:32:19;;;;;;;8.90;5.20;;;;;;;7.63;80.98;101070.60;108836;1261;71238;-77
2023/02/20 07:34:46;;;;;;;8.70;5.40;;;;;;;7.66;80.67;101067.80;108758;1258;59939;-77
2023/02/20 07:37:30;;;;;;;9.50;5.30;;;;;;;7.68;79.97;101069.16;108832;1258;59923;-77
2023/02/20 07:39:57;;;;;;;9.40;5.30;;;;;;;7.69;79.78;101066.65;108836;1257;74622;-77
2023/02/20 07:42:23;;;;;;;9.80;5.50;;;;;;;7.71;79.58;101067.48;108863;1259;69043;-77
2023/02/20 07:44:50;;;;;;;10.70;5.70;;;;;;;7.73;79.04;101068.02;108848;1260;72655;-77
2023/02/20 07:47:17;;;;;;;10.60;5.80;;;;;;;7.77;79.12;101060.58;108546;1258;350847;-76
2023/02/20 07:49:44;;;;;;;9.00;5.30;;;;;;;7.80;78.47;101050.33;108821;1259;59212;-76
2023/02/20 07:52:11;;;;;;;10.50;6.00;;;;;;;7.82;78.34;101057.48;108745;1257;74369;-76
2023/02/20 07:54:37;;;;;;;9.60;5.90;;;;;;;7.84;78.53;101062.59;108897;1259;69511;-76
2023/02/20 07:57:04;;;;;;;9.30;5.70;;;;;;;7.83;78.35;101075.89;108898;1257;73399;-76
2023/02/20 07:59:31;;;;;;;8.80;5.80;;;;;;;7.88;78.33;101067.13;108852;1260;60878;-77
2023/02/20 08:01:57;;;;;;;11.10;6.70;;;;;;;7.90;78.39;101075.35;108733;1260;59456;-76
2023/02/20 08:04:26;;;;;;;9.90;6.50;;;;;;;7.94;78.06;101076.05;108858;1259;73349;-77
2023/02/20 08:06:53;;;;;;;10.20;6.50;;;;;;;7.91;77.53;101078.27;108830;1260;70003;-76
2023/02/20 08:09:20;;;;;;;10.70;6.60;;;;;;;7.95;77.78;101071.23;108791;1257;70258;-76
2023/02/20 08:11:46;;;;;;;11.30;7.10;;;;;;;7.96;77.66;101067.75;108782;1257;61718;-76
2023/02/20 08:14:14;;;;;;;12.10;7.70;;;;;;;8.00;77.49;101070.20;108848;1257;58932;-76
2023/02/20 08:16:41;;;;;;;11.60;7.30;;;;;;;8.01;76.97;101068.85;108891;1258;73562;-76
2023/02/20 08:19:08;;;;;;;10.90;7.80;;;;;;;8.03;76.95;101064.05;108882;1258;70042;-76
2023/02/20 08:21:35;;;;;;;10.80;7.60;;;;;;;8.08;77.07;101050.92;108780;1262;71520;-76
2023/02/20 08:24:02;;;;;;;12.20;7.60;;;;;;;8.07;76.63;101050.27;108806;1262;60926;-76
2023/02/20 08:26:29;;;;;;;10.60;7.60;;;;;;;8.08;76.39;101053.39;108930;1258;59224;-77
2023/02/20 08:28:56;;;;;;;14.20;8.60;;;;;;;8.10;76.46;101043.48;108787;1262;74566;-76
2023/02/20 08:31:23;;;;;;;11.70;8.40;;;;;;;8.08;76.69;101044.55;108668;1257;70053;-76
2023/02/20 08:33:59;;;;;;;13.30;9.30;;;;;;;8.06;76.86;101035.38;108755;1258;72445;-76
2023/02/20 08:36:26;;;;;;;13.00;9.10;;;;;;;8.07;76.87;101033.77;108776;1256;59759;-76
2023/02/20 08:38:53;;;;;;;12.60;9.60;;;;;;;8.12;77.40;101024.11;108846;1257;60453;-77
2023/02/20 08:41:20;;;;;;;13.70;9.60;;;;;;;8.11;77.12;101033.02;108859;1257;73161;-76
2023/02/20 08:43:48;;;;;;;14.80;10.10;;;;;;;8.12;76.89;101032.30;108802;1259;72097;-76
2023/02/20 08:46:14;;;;;;;13.80;10.50;;;;;;;8.21;77.31;101034.20;108851;1262;71546;-76
2023/02/20 08:48:42;;;;;;;14.70;10.60;;;;;;;8.19;77.02;101028.21;108830;1261;59680;-76
2023/02/20 08:51:09;;;;;;;13.10;9.70;;;;;;;8.19;76.96;101035.38;108779;1260;59238;-76
2023/02/20 08:53:38;;;;;;;15.60;10.90;;;;;;;8.25;77.02;101032.72;108848;1260;74026;-76
2023/02/20 08:56:08;;;;;;;14.80;11.00;;;;;;;8.32;76.73;101022.19;108890;1257;69737;-75
2023/02/20 08:58:35;;;;;;;14.50;11.20;;;;;;;8.34;76.60;101028.24;108869;1257;71094;-77
2023/02/20 09:01:02;;;;;;;16.20;11.20;;;;;;;8.41;76.52;101017.52;108893;1257;59078;-77
2023/02/20 09:03:29;;;;;;;15.80;12.10;;;;;;;8.47;76.49;101022.98;108761;1259;59052;-76
2023/02/20 09:05:56;;;;;;;16.30;11.70;;;;;;;8.59;76.19;101024.30;108883;1257;75144;-76
2023/02/20 09:08:23;;;;;;;16.30;12.10;;;;;;;8.66;76.22;101032.02;108810;1260;69797;-77
2023/02/20 09:10:50;;;;;;;17.50;12.20;;;;;;;8.78;75.98;101028.66;108827;1259;72722;-77
2023/02/20 09:13:17;;;;;;;17.10;12.50;;;;;;;8.87;75.61;101041.88;108794;1262;59508;-77
2023/02/20 09:15:44;;;;;;;16.10;11.50;;;;;;;8.89;75.49;101028.26;108791;1257;59177;-77
2023/02/20 09:18:13;;;;;;;15.80;12.30;;;;;;;8.84;75.69;101020.67;108820;1257;72365;-77
2023/02/20 09:20:40;;;;;;;17.90;13.40;;;;;;;8.82;75.85;101020.02;108817;1261;70381;-77
2023/02/20 09:23:07;;;;;;;18.50;13.10;;;;;;;8.82;76.45;101002.48;108720;1263;70589;-77
2023/02/20 09:25:35;;;;;;;18.50;12.30;;;;;;;8.77;76.70;101007.48;108796;1261;60121;-77
2023/02/20 09:28:02;;;;;;;19.00;13.50;;;;;;;8.71;77.36;101002.97;108820;1260;60026;-77
2023/02/20 09:30:29;;;;;;;19.10;13.60;;;;;;;8.70;77.94;100998.67;108829;1257;73502;-77
2023/02/20 09:32:56;;;;;;;19.60;14.20;;;;;;;8.64;78.09;101003.67;108806;1258;70031;-77
2023/02/20 09:35:26;;;;;;;16.30;12.00;;;;;;;8.59;78.50;100989.84;108751;1260;72296;-77
2023/02/20 09:37:53;;;;;;;17.50;13.90;;;;;;;8.53;78.98;100995.32;108831;1258;60061;-76
2023/02/20 09:40:25;;;;;;;19.50;14.60;;;;;;;8.50;79.55;100990.58;108779;1260;60753;-76
2023/02/20 09:43:12;;;;;;;16.70;12.50;;;;;;;8.49;80.01;100984.15;108822;1257;75799;-76
2023/02/20 09:46:02;;;;;;;18.50;13.70;;;;;;;8.45;80.53;100983.16;108876;1257;69901;-76
2023/02/20 09:48:47;;;;;;;19.50;13.60;;;;;;;8.42;80.79;100987.62;108765;1257;72490;-76
2023/02/20 09:51:18;;;;;;;19.70;14.40;;;;;;;8.40;81.14;100983.64;108830;1258;59091;-76
2023/02/20 09:54:16;;;;;;;20.30;14.80;;;;;;;8.37;81.53;100973.68;108752;1261;59072;-76
2023/02/20 09:56:50;;;;;;;22.20;15.30;;;;;;;8.34;81.89;100967.30;108605;1257;73857;-76
2023/02/20 09:59:19;;;;;;;18.20;14.40;;;;;;;8.40;82.15;100955.30;108835;1259;69628;-76
2023/02/20 10:01:54;;;;;;;19.10;14.30;;;;;;;8.42;82.08;100965.64;108812;1258;71551;-76
2023/02/20 10:04:31;;;;;;;19.00;15.00;;;;;;;8.43;82.35;100967.34;108796;1259;59608;-76
2023/02/20 10:07:15;;;;;;;18.80;13.70;;;;;;;8.42;82.71;100961.06;108756;1257;59434;-76
2023/02/20 10:09:42;;;;;;;18.40;13.90;;;;;;;8.40;82.79;100963.88;108809;1257;74570;-76
2023/02/20 10:12:25;;;;;;;18.50;13.10;;;;;;;8.40;82.94;100958.64;108815;1258;70689;-76
2023/02/20 10:14:52;;;;;;;16.60;12.90;;;;;;;8.34;83.41;100968.38;108805;1257;70496;-76
2023/02/20 10:17:34;;;;;;;18.10;13.00;;;;;;;8.30;83.72;100964.71;108810;1257;60268;-76
2023/02/20 10:20:01;;;;;;;16.70;12.10;;;;;;;8.31;84.08;100965.02;108818;1257;58803;-76
2023/02/20 10:22:57;;;;;;;19.60;14.40;;;;;;;8.27;84.45;100967.30;108856;1257;74702;-76
2023/02/20 10:25:33;;;;;;;17.60;13.90;;;;;;;8.30;84.83;100958.56;108721;1257;72098;-77
2023/02/20 10:28:08;;;;;;;18.30;13.30;;;;;;;8.28;85.03;100969.85;108759;1257;71439;-77
2023/02/20 10:30:45;;;;;;;16.60;12.10;;;;;;;8.25;84.96;100976.53;108709;1257;60916;-77
2023/02/20 10:33:18;;;;;;;16.60;12.50;;;;;;;8.25;85.42;100978.25;108866;1257;60103;-77
2023/02/20 10:36:20;;;;;;;18.70;13.20;;;;;;;8.26;85.52;100972.88;108853;1257;74680;-77
2023/02/20 10:38:53;;;;;;;18.00;12.20;;;;;;;8.29;85.78;100972.78;108697;1260;69113;-77
2023/02/20 10:41:24;;;;;;;18.70;13.20;;;;;;;8.28;86.11;100971.77;108712;1259;71276;-77
2023/02/20 10:44:16;;;;;;;20.20;14.20;;;;;;;8.24;85.93;100967.41;108783;1260;60552;-77
2023/02/20 10:47:05;;;;;;;18.80;13.40;;;;;;;8.25;86.33;100973.99;108824;1257;60086;-77
2023/02/20 10:49:40;;;;;;;18.20;13.60;;;;;;;8.23;86.61;100969.30;108824;1257;74468;-77
2023/02/20 10:52:11;;;;;;;17.70;13.10;;;;;;;8.19;86.54;100971.48;108912;1258;71740;-77
2023/02/20 10:55:25;;;;;;;19.90;13.60;;;;;;;8.19;86.92;100972.11;108873;1257;72433;-77
2023/02/20 10:58:56;;;;;;;17.10;13.70;;;;;;;8.20;86.98;100986.72;108746;1258;59761;-77
2023/02/20 11:01:25;;;;;;;18.70;13.50;;;;;;;8.16;87.52;100992.55;108509;1263;60206;-76
2023/02/20 11:04:08;;;;;;;20.90;14.50;;;;;;;8.12;87.68;100972.69;108806;1260;74284;-77
2023/02/20 11:06:46;;;;;;;18.40;13.50;;;;;;;8.10;87.83;100986.90;108842;1257;71897;-78
2023/02/20 11:09:13;;;;;;;17.30;12.10;;;;;;;8.11;88.23;100979.11;108796;1259;71524;-77
2023/02/20 11:11:43;;;;;;;18.90;12.60;;;;;;;8.08;88.47;100996.60;108810;1260;60928;-77
2023/02/20 11:14:17;;;;;;;20.20;14.20;;;;;;;8.04;88.51;100980.00;108697;1260;59175;-77
2023/02/20 11:16:55;;;;;;;22.90;15.20;;;;;;;8.00;89.08;100974.23;108744;1257;73553;-77
2023/02/20 11:19:29;;;;;;;23.00;14.10;;;;;;;8.02;89.05;100987.76;108815;1260;69662;-77
2023/02/20 11:21:56;;;;;;;23.20;16.50;;;;;;;8.03;89.21;100973.59;108745;1260;72404;-77
2023/02/20 11:24:33;;;;;;;20.10;16.40;;;;;;;8.00;89.00;100983.41;108757;1260;60948;-77
2023/02/20 11:27:04;;;;;;;22.80;16.30;;;;;;;7.91;89.28;100994.80;108811;1257;60398;-78
2023/02/20 11:30:02;;;;;;;22.50;14.80;;;;;;;7.90;89.47;100980.61;108714;1259;73142;-77
2023/02/20 11:32:30;;;;;;;24.60;15.50;;;;;;;7.88;89.85;100986.97;108866;1257;69707;-78
2023/02/20 11:35:18;;;;;;;24.60;17.20;;;;;;;7.89;89.65;100994.11;108802;1258;71198;-78
2023/02/20 11:37:51;;;;;;;23.60;17.20;;;;;;;7.89;90.02;100969.08;108868;1257;59747;-78
2023/02/20 11:40:30;;;;;;;24.00;18.30;;;;;;;7.88;89.95;100962.69;108761;1257;59496;-78
2023/02/20 11:43:12;;;;;;;26.90;19.00;;;;;;;7.87;89.93;100983.42;108845;1257;74008;-78
2023/02/20 11:45:40;;;;;;;26.70;17.70;;;;;;;7.81;90.09;100971.31;108873;1257;69740;-78
2023/02/20 11:48:24;;;;;;;24.90;16.40;;;;;;;7.82;90.48;100956.48;108821;1257;71274;-78
2023/02/20 11:50:52;;;;;;;26.10;17.50;;;;;;;7.78;90.38;100963.35;108779;1257;60032;-77
2023/02/20 11:53:25;;;;;;;27.20;18.70;;;;;;;7.80;90.92;100961.03;108828;1257;59738;-77